Weather observations for the past three days for
Cocoa - Patrick Air Force Base
| Date | Time (edt) | Wind (kph) | Vis. (km) | Weather | Sky Cond. | Temperature (ºC) | Relative Humidity | Wind Chill (°C) | Heat Index (°C) | Pressure | Precipitation (cm) | ||||||
|---|---|---|---|---|---|---|---|---|---|---|---|---|---|---|---|---|---|
| Air | Dwpt | 6 hour | altimeter (cm) | sea level (mb) | 1 hr | 3 hr | 6 hr | ||||||||||
| Max. | Min. | ||||||||||||||||
| 06 | 15:55 | SE 19 | 16.09 | A Few Clouds | FEW140 | 29 | 22 | 66% | 32 | 76.15 | 0.0 | ||||||
| 06 | 14:55 | SE 22 | 16.09 | Fair | CLR | 29 | 22 | 66% | 32 | 76.2 | 1016.3 | ||||||
| 06 | 13:55 | SE 20 | 16.09 | Partly Cloudy | FEW120 FEW140 SCT180 | 28 | 22 | 28.8 | 24.8 | 70% | 31 | 0 | 0.0 | ||||
| 06 | 13:03 | SE 17 | 16.09 | A Few Clouds | FEW190 | 28.5 | 22 | 68% | 31 | 76.25 | 1017.0 | ||||||
| 06 | 12:55 | Calm | 0.00 | A Few Clouds | FEW190 | 28.5 | 22 | 68% | 31 | 76.25 | 1017.0 | ||||||
| 06 | 11:55 | SE 17 | 16.09 | Fair | CLR | 27.9 | 22.1 | 71% | 31 | 76.28 | 1017.4 | ||||||
| 06 | 10:55 | SE 15 | 16.09 | Fair | CLR | 27.9 | 21.6 | 69% | 30 | 76.25 | 1017.0 | ||||||
| 06 | 09:55 | SE 17 | 16.09 | Fair | CLR | 27.2 | 21.7 | 72% | 29 | 76.23 | 1016.7 | ||||||
| 06 | 08:55 | SE 15 | 16.09 | Fair | CLR | 26.5 | 21.5 | 74% | 28 | 76.2 | 1016.3 | ||||||
| 06 | 07:55 | S 7 | 16.09 | Fair | CLR | 24.7 | 21 | 24.7 | 23.3 | 80% | 25 | 76.17 | 1016.0 | ||||
| 06 | 06:55 | S 6 | 16.09 | Fair | CLR | 24.3 | 20.6 | 80% | 25 | 76.15 | 1015.7 | ||||||
| 06 | 05:55 | S 6 | 16.09 | Fair | CLR | 24.2 | 20.5 | 80% | 25 | 76.1 | 0.0 | ||||||
| 06 | 04:55 | SE 9 | 16.09 | Fair | CLR | 24.2 | 20.5 | 80% | 25 | 76.1 | 1015.0 | ||||||
| 06 | 03:55 | SE 13 | 16.09 | Fair | CLR | 24.4 | 19.7 | 75% | 25 | 76.1 | 0.0 | ||||||
| 06 | 02:55 | SE 13 | 16.09 | Fair | CLR | 24.4 | 19.4 | 74% | 25 | 76.12 | 0.0 | ||||||
| 06 | 01:55 | SE 15 | 16.09 | Fair | CLR | 24.6 | 18.5 | 25 | 24.3 | 69% | 26 | 76.15 | 1015.7 | ||||
| 06 | 00:55 | SE 13 | 16.09 | Fair | CLR | 24.6 | 17.6 | 65% | 26 | 76.17 | 1016.0 | ||||||
| 05 | 23:55 | E 13 | 16.09 | Fair | CLR | 24.8 | 18.2 | 67% | 26 | 76.17 | 1016.0 | ||||||
| 05 | 22:55 | E 17 | 16.09 | Fair | CLR | 24.7 | 18.1 | 67% | 26 | 76.17 | 1016.0 | ||||||
| 05 | 21:55 | E 15 | 16.09 | Fair | CLR | 24.7 | 17.7 | 65% | 26 | 76.15 | 1015.7 | ||||||
| 05 | 20:55 | E 13 | 16.09 | Fair | CLR | 24.7 | 15.9 | 58% | 26 | 76.1 | 1015.0 | ||||||
| 05 | 19:55 | E 15 | 16.09 | Fair | CLR | 24.9 | 16.8 | 27.5 | 24.8 | 61% | 26 | 76.1 | 1015.0 | ||||
| 05 | 18:55 | E 19 | 16.09 | Fair | CLR | 25.7 | 16.2 | 56% | 27 | 76.1 | 1015.0 | ||||||
| 05 | 17:55 | E 17 | 16.09 | Fair | CLR | 0 | 0 | 0% | 76.1 | 0.0 | |||||||
| 05 | 16:55 | E 19 | 16.09 | Fair | CLR | 26.7 | 16.3 | 53% | 27 | 76.1 | 1015.0 | ||||||
| 05 | 15:55 | E 19 | 16.09 | Fair | CLR | 0 | 0 | 0% | 0 | 0.0 | |||||||
| 05 | 14:55 | E 20 | 16.09 | Fair | CLR | 27 | 0 | 0% | 76.15 | 1015.7 | |||||||
| 05 | 13:55 | E 19 | 16.09 | Partly Cloudy | FEW110 FEW150 SCT180 SCT200 | 28 | 0 | 27.7 | 24.5 | 0% | 76.2 | 1016.3 | |||||
| 05 | 12:55 | E 20 | 16.09 | Partly Cloudy | FEW160 SCT200 | 27 | 0 | 0% | 0 | 0.0 | |||||||
| 05 | 11:55 | E 17 | 16.09 | Fair | CLR | 27.4 | 16.9 | 53% | 28 | 76.2 | 1016.3 | ||||||
| 05 | 10:55 | E 20 | 16.09 | Fair | CLR | 26.8 | 17.3 | 56% | 28 | 76.17 | 1016.0 | ||||||
| 05 | 09:55 | E 19 | 16.09 | Fair | CLR | 26.2 | 17.8 | 60% | 27 | 76.17 | 1016.0 | ||||||
| 05 | 08:55 | SE 20 | 16.09 | Fair | CLR | 25.5 | 17.7 | 62% | 26 | 76.15 | 1015.7 | ||||||
| 05 | 07:55 | E 17 | 16.09 | Fair | CLR | 24.5 | 17.5 | 24.5 | 23.2 | 65% | 26 | 76.12 | 1015.3 | ||||
| 05 | 06:55 | E 20 | 16.09 | Fair | CLR | 23.4 | 17.1 | 68% | 76.07 | 1014.7 | |||||||
| 05 | 05:55 | E 11 | 16.09 | Fair | CLR | 23.3 | 17.3 | 69% | 76.02 | 1014.0 | |||||||
| 05 | 04:55 | E 11 | 16.09 | Fair | CLR | 23.3 | 17.3 | 69% | 76.02 | 1014.0 | |||||||
| 05 | 03:55 | E 13 | 16.09 | Fair | CLR | 23.3 | 17 | 68% | 76.02 | 1014.0 | |||||||
| 05 | 02:55 | E 19 | 16.09 | A Few Clouds | FEW029 | 23.8 | 17.7 | 69% | 76.02 | 1014.0 | |||||||
| 05 | 01:55 | E 22 | 16.09 | A Few Clouds | FEW029 FEW037 | 23.4 | 17.8 | 24 | 23.3 | 71% | 76.07 | 1014.7 | |||||
| 05 | 00:55 | E 22 | 16.09 | Fair | CLR | 23.4 | 17.8 | 71% | 76.1 | 1015.0 | |||||||
| 04 | 23:55 | E 24 | 16.09 | Fair | CLR | 23.9 | 18.3 | 71% | 25 | 76.15 | 1015.7 | ||||||
| 04 | 22:55 | E 24 | 16.09 | Fair | CLR | 23.4 | 17.4 | 69% | 76.15 | 1015.7 | |||||||
| 04 | 21:55 | E 19 | 16.09 | Fair | CLR | 23.3 | 17 | 68% | 76.15 | 1015.7 | |||||||
| 04 | 20:55 | E 20 | 16.09 | Fair | CLR | 23.4 | 16.7 | 66% | 76.12 | 1015.3 | |||||||
| 04 | 19:55 | E 22 | 16.09 | Partly Cloudy | FEW037 SCT050 | 23.8 | 16.6 | 26.6 | 23.7 | 64% | 76.1 | 1015.0 | |||||
| 04 | 18:55 | E 20 | 16.09 | Fair | CLR | 24.6 | 16.8 | 62% | 26 | 76.07 | 1014.7 | ||||||
| 04 | 17:55 | E 20 | 16.09 | Fair | CLR | 24.7 | 15.6 | 57% | 26 | 76.1 | 1015.0 | ||||||
| 04 | 16:55 | E 24 | 16.09 | Fair | CLR | 25.6 | 15.6 | 54% | 26 | 76.1 | 1015.0 | ||||||
| 04 | 15:55 | E 22 | 16.09 | A Few Clouds | FEW200 | 25.7 | 16 | 55% | 26 | 76.12 | 1015.3 | ||||||
| 04 | 14:55 | E 24 | 16.09 | A Few Clouds | FEW190 | 26.4 | 15.7 | 52% | 27 | 76.17 | 1016.0 | ||||||
| 04 | 13:55 | E 24 | 16.09 | A Few Clouds | FEW038 FEW160 | 25.3 | 15.9 | 27 | 23.9 | 56% | 26 | 76.23 | 1016.7 | ||||
| 04 | 12:55 | NE 26 | 16.09 | A Few Clouds | FEW039 FEW047 | 25.3 | 15.3 | 54% | 26 | 76.23 | 1016.7 | ||||||
| 04 | 11:55 | NE 24 G 39 | 16.09 | A Few Clouds | FEW150 | 26 | 16.2 | 55% | 27 | 76.25 | 1017.0 | ||||||
| 04 | 10:55 | NE 33 | 16.09 | A Few Clouds and Breezy | FEW210 | 25.9 | 16.4 | 56% | 27 | 76.25 | 1017.0 | ||||||
| 04 | 09:55 | NE 30 | 16.09 | Fair | CLR | 24.2 | 15.9 | 60% | 25 | 76.2 | 1016.3 | ||||||
| 04 | 08:55 | NE 30 | 16.09 | Fair | CLR | 24.3 | 16 | 60% | 25 | 76.15 | 1015.7 | ||||||
| 04 | 07:55 | NE 26 | 16.09 | A Few Clouds | FEW035 | 23.8 | 15.3 | 23.8 | 22.9 | 59% | 76.12 | 1015.3 | |||||
| 04 | 06:55 | NE 26 | 16.09 | Fair | CLR | 23 | 16 | 65% | 76.1 | 1015.0 | |||||||
| 04 | 05:55 | NE 24 | 16.09 | Fair | CLR | 23.2 | 16.2 | 65% | 76.07 | 1014.7 | |||||||
| 04 | 04:55 | NE 26 | 16.09 | Mostly Cloudy | SCT031 BKN043 | 23.4 | 17.1 | 68% | 76.05 | 1014.3 | |||||||
| 04 | 03:55 | NE 22 | 16.09 | Partly Cloudy | FEW029 SCT046 | 23.5 | 17.2 | 68% | 76.02 | 1014.0 | |||||||
| 04 | 02:55 | NE 15 | 16.09 | A Few Clouds | FEW030 | 23.4 | 16.9 | 67% | 76.07 | 1014.7 | |||||||
| 04 | 01:55 | NE 19 | 16.09 | Fair | CLR | 23.6 | 17.1 | 23.8 | 23 | 67% | 76.12 | 1015.3 | |||||
| 04 | 00:55 | E 17 | 16.09 | A Few Clouds | FEW047 | 23.7 | 17.4 | 68% | 76.15 | 1015.7 | |||||||
| 03 | 23:55 | E 19 | 16.09 | A Few Clouds | FEW032 | 23.7 | 16.9 | 66% | 76.17 | 1016.0 | |||||||
| 03 | 22:55 | E 17 | 16.09 | A Few Clouds | FEW033 | 23.5 | 16.5 | 65% | 76.2 | 1016.3 | |||||||
| 03 | 21:55 | NE 22 | 16.09 | A Few Clouds | FEW045 | 23.4 | 16.4 | 65% | 76.17 | 1016.0 | |||||||
| 03 | 20:55 | E 22 | 16.09 | A Few Clouds | FEW034 | 23.1 | 16.1 | 65% | 76.15 | 1015.7 | |||||||
| 03 | 19:55 | NE 22 | 16.09 | A Few Clouds | FEW031 FEW042 | 23.5 | 17.2 | 25.2 | 22.8 | 68% | 76.1 | 1015.0 | |||||
| 03 | 18:55 | NE 20 | 16.09 | Mostly Cloudy | BKN039 | 23.8 | 17.3 | 67% | 76.1 | 1015.0 | |||||||
| 03 | 17:55 | NE 20 | 16.09 | A Few Clouds | FEW049 | 23.6 | 17.1 | 67% | 76.1 | 1015.0 | |||||||
| 03 | 16:55 | NE 24 | 16.09 | Mostly Cloudy | BKN032 | 23.7 | 17.4 | 68% | 76.12 | 1015.3 | |||||||
| Date | Time (edt) | Wind (kph) | Vis. (km) | Weather | Sky Cond. | Air | Dwpt | Max. | Min. | Relative Humidity | Wind Chill (°C) | Heat Index (°C) | altimeter (cm) | sea level (mb) | 1 hr | 3 hr | 6 hr |
| 6 hour | |||||||||||||||||
| Temperature (ºC) | Pressure | Precipitation (cm) | |||||||||||||||